createdAt,value
2023-02-02T00:00:38.166Z,1.65
2023-02-02T00:01:35.226Z,1.58
2023-02-02T00:02:31.926Z,1.83
2023-02-02T00:03:28.547Z,1.96
2023-02-02T00:04:28.184Z,1.98
2023-02-02T00:05:25.101Z,1.44
2023-02-02T00:06:23.865Z,2.02
2023-02-02T00:07:20.422Z,1.85
2023-02-02T00:08:18.050Z,1.81
2023-02-02T00:09:19.190Z,1.91
2023-02-02T00:10:16.152Z,2.03
2023-02-02T00:11:13.257Z,1.99
2023-02-02T00:12:10.305Z,1.94
2023-02-02T00:13:06.940Z,1.93
2023-02-02T00:14:03.664Z,1.96
2023-02-02T00:15:00.303Z,1.53
2023-02-02T00:15:57.091Z,1.62
2023-02-02T00:16:55.130Z,1.86
2023-02-02T00:17:51.838Z,1.93
2023-02-02T00:18:49.354Z,1.89
2023-02-02T00:19:46.857Z,1.84
2023-02-02T00:20:44.823Z,1.79
2023-02-02T00:21:42.203Z,1.52
2023-02-02T00:22:38.865Z,1.82
2023-02-02T00:23:35.424Z,1.33
2023-02-02T00:24:32.138Z,1.64
2023-02-02T00:25:29.017Z,1.80
2023-02-02T00:26:26.462Z,1.80
2023-02-02T00:27:23.146Z,1.79
2023-02-02T00:28:19.734Z,1.70
2023-02-02T00:29:22.124Z,1.71
2023-02-02T00:30:18.938Z,1.47
2023-02-02T00:31:15.626Z,1.50
2023-02-02T00:32:13.361Z,1.54
2023-02-02T00:33:09.917Z,1.46
2023-02-02T00:34:06.463Z,1.41
2023-02-02T00:35:03.094Z,1.49
2023-02-02T00:35:59.673Z,1.51
2023-02-02T00:36:56.420Z,1.41
2023-02-02T00:37:52.971Z,1.31
2023-02-02T00:38:51.191Z,1.07
2023-02-02T00:39:47.785Z,1.29
2023-02-02T00:40:44.629Z,1.40
2023-02-02T00:41:41.167Z,1.35
2023-02-02T00:42:37.769Z,1.28
2023-02-02T00:43:34.438Z,1.54
2023-02-02T00:44:50.094Z,1.53
2023-02-02T00:45:47.159Z,1.10
2023-02-02T00:46:43.838Z,1.06
2023-02-02T00:47:40.425Z,1.11
2023-02-02T00:48:37.030Z,1.08
2023-02-02T00:49:33.598Z,1.17
2023-02-02T00:50:30.842Z,1.00
2023-02-02T00:51:27.449Z,0.19
2023-02-02T00:52:24.006Z,0.88
2023-02-02T00:53:20.589Z,0.94
2023-02-02T00:54:17.178Z,0.73
2023-02-02T00:55:15.049Z,0.31
2023-02-02T00:56:11.707Z,0.60
2023-02-02T00:57:13.228Z,0.67
2023-02-02T00:58:09.782Z,0.56
2023-02-02T00:59:06.563Z,0.60
2023-02-02T01:00:05.316Z,0.39
2023-02-02T01:01:02.052Z,0.68
2023-02-02T01:01:58.917Z,0.27
2023-02-02T01:02:57.034Z,0.50
2023-02-02T01:03:53.588Z,0.06
2023-02-02T01:04:51.759Z,0.62
2023-02-02T01:05:50.633Z,0.50
2023-02-02T01:06:47.326Z,0.75
2023-02-02T01:07:44.076Z,1.01
2023-02-02T01:08:40.899Z,0.85
2023-02-02T01:09:37.472Z,0.72
2023-02-02T01:10:34.453Z,0.34
2023-02-02T01:11:31.132Z,0.52
2023-02-02T01:12:27.720Z,0.68
2023-02-02T01:13:24.368Z,0.74
2023-02-02T01:14:21.099Z,0.81
2023-02-02T01:15:17.829Z,1.17
2023-02-02T01:16:14.521Z,0.96
2023-02-02T01:17:11.240Z,0.91
2023-02-02T01:18:07.871Z,0.82
2023-02-02T01:19:04.475Z,0.85
2023-02-02T01:20:01.086Z,0.75
2023-02-02T01:21:03.136Z,0.63
2023-02-02T01:21:59.760Z,0.48
2023-02-02T01:22:56.455Z,0.43
2023-02-02T01:23:53.062Z,0.43
2023-02-02T01:24:49.631Z,0.40
2023-02-02T01:25:46.309Z,0.36
2023-02-02T01:26:43.199Z,0.34
2023-02-02T01:27:39.874Z,0.16
2023-02-02T01:28:37.473Z,-0.19
2023-02-02T01:29:34.251Z,0.28
2023-02-02T01:30:30.929Z,0.30
2023-02-02T01:31:27.619Z,0.32
2023-02-02T01:32:24.254Z,-0.13
2023-02-02T01:33:21.218Z,0.22
2023-02-02T01:34:17.961Z,0.56
2023-02-02T01:35:14.595Z,0.38
2023-02-02T01:36:15.842Z,0.28
2023-02-02T01:37:12.420Z,-0.02
2023-02-02T01:38:09.008Z,-0.42
2023-02-02T01:39:05.739Z,-0.43
2023-02-02T01:40:02.385Z,-0.25
2023-02-02T01:40:59.049Z,-0.55
2023-02-02T01:41:55.685Z,-0.34
2023-02-02T01:42:52.364Z,-0.65
2023-02-02T01:43:53.324Z,-0.64
2023-02-02T01:44:53.015Z,-0.40
2023-02-02T01:45:51.107Z,-0.44
2023-02-02T01:46:47.704Z,-1.03
2023-02-02T01:47:50.513Z,-0.49
2023-02-02T01:48:52.300Z,-0.57
2023-02-02T01:49:49.017Z,-0.68
2023-02-02T01:50:47.654Z,-0.99
2023-02-02T01:51:52.175Z,-0.80
2023-02-02T01:52:51.897Z,-0.81
2023-02-02T01:53:50.994Z,-0.69
2023-02-02T01:54:55.276Z,-1.07
2023-02-02T01:55:52.639Z,-0.59
2023-02-02T01:56:59.120Z,-0.74
2023-02-02T01:58:03.924Z,-0.35
2023-02-02T01:59:01.943Z,-0.33
2023-02-02T02:00:02.946Z,-0.18
2023-02-02T02:00:59.578Z,0.08
2023-02-02T02:01:56.404Z,0.15
2023-02-02T02:03:01.506Z,-0.04
2023-02-02T02:03:58.566Z,0.32
2023-02-02T02:04:55.874Z,0.26
2023-02-02T02:06:01.493Z,0.50
2023-02-02T02:07:00.900Z,0.08
2023-02-02T02:08:06.436Z,0.44
2023-02-02T02:09:05.138Z,0.72
2023-02-02T02:10:01.888Z,0.65
2023-02-02T02:10:58.557Z,0.52
2023-02-02T02:11:55.233Z,0.19
2023-02-02T02:12:52.001Z,-0.29
2023-02-02T02:14:08.844Z,0.16
2023-02-02T02:15:24.788Z,0.24
2023-02-02T02:16:41.065Z,0.04
2023-02-02T02:17:59.227Z,-0.77
2023-02-02T02:19:13.986Z,0.32
2023-02-02T02:20:48.141Z,-0.05
2023-02-02T02:22:18.541Z,0.72
2023-02-02T02:23:48.898Z,0.38
2023-02-02T02:25:10.157Z,-0.01
2023-02-02T02:26:40.946Z,0.10
2023-02-02T02:28:19.266Z,0.34
2023-02-02T02:29:37.196Z,0.29
2023-02-02T02:31:01.843Z,0.13
2023-02-02T02:32:17.768Z,-0.15
2023-02-02T02:33:44.118Z,-0.26
2023-02-02T02:35:14.703Z,-0.20
2023-02-02T02:36:17.601Z,-0.35
2023-02-02T02:37:23.463Z,-0.49
2023-02-02T02:38:29.190Z,-0.42
2023-02-02T02:39:33.571Z,-0.45
2023-02-02T02:40:39.898Z,-0.48
2023-02-02T02:41:43.378Z,-0.51
2023-02-02T02:42:46.821Z,-0.58
2023-02-02T02:43:52.853Z,-1.03
2023-02-02T02:44:50.822Z,-0.83
2023-02-02T02:45:47.879Z,-1.03
2023-02-02T02:46:45.480Z,-0.71
2023-02-02T02:47:43.782Z,-1.05
2023-02-02T02:48:44.791Z,-1.02
2023-02-02T02:49:45.725Z,-0.82
2023-02-02T02:50:42.366Z,-0.64
2023-02-02T02:51:52.392Z,-0.56
2023-02-02T02:52:52.951Z,-0.86
2023-02-02T02:53:49.538Z,-0.67
2023-02-02T02:54:54.796Z,-0.33
2023-02-02T02:55:53.908Z,-0.46
2023-02-02T02:57:08.682Z,-0.62
2023-02-02T02:58:24.078Z,-0.52
2023-02-02T02:59:55.616Z,-0.54
2023-02-02T03:01:02.707Z,-0.74
2023-02-02T03:02:01.999Z,-0.57
2023-02-02T03:03:21.788Z,-0.25
2023-02-02T03:04:39.867Z,-0.30
2023-02-02T03:05:56.308Z,-0.49
2023-02-02T03:07:00.367Z,-0.56
2023-02-02T03:08:19.274Z,-0.74
2023-02-02T03:09:22.310Z,-0.73
2023-02-02T03:10:24.170Z,-0.73
2023-02-02T03:11:21.381Z,-0.81
2023-02-02T03:12:18.555Z,-0.90
2023-02-02T03:13:16.936Z,-0.78
2023-02-02T03:14:13.655Z,-0.79
2023-02-02T03:15:10.880Z,-0.79
2023-02-02T03:16:08.868Z,-0.85
2023-02-02T03:17:05.533Z,-0.91
2023-02-02T03:18:02.284Z,-0.78
2023-02-02T03:18:59.132Z,-0.93
2023-02-02T03:19:55.742Z,-0.50
2023-02-02T03:20:52.305Z,-0.53
2023-02-02T03:21:48.909Z,-0.63
2023-02-02T03:22:45.602Z,-0.56
2023-02-02T03:23:42.244Z,-0.64
2023-02-02T03:24:38.811Z,-0.93
2023-02-02T03:25:35.447Z,-0.90
2023-02-02T03:26:32.094Z,-0.92
2023-02-02T03:27:29.374Z,-1.08
2023-02-02T03:28:26.354Z,-1.14
2023-02-02T03:29:22.964Z,-0.99
2023-02-02T03:30:19.911Z,-1.06
2023-02-02T03:31:16.733Z,-0.92
2023-02-02T03:32:13.335Z,-0.83
2023-02-02T03:33:11.893Z,-1.10
2023-02-02T03:34:08.501Z,-0.98
2023-02-02T03:35:05.696Z,-0.91
2023-02-02T03:36:02.440Z,-0.93
2023-02-02T03:36:59.109Z,-1.06
2023-02-02T03:37:55.679Z,-1.10
2023-02-02T03:38:52.234Z,-1.61
2023-02-02T03:39:48.927Z,-0.98
2023-02-02T03:40:45.561Z,-1.17
2023-02-02T03:41:42.160Z,-1.16
2023-02-02T03:42:39.185Z,-1.21
2023-02-02T03:43:35.836Z,-0.99
2023-02-02T03:44:32.407Z,-0.99
2023-02-02T03:45:29.375Z,-1.18
2023-02-02T03:46:26.009Z,-0.96
2023-02-02T03:47:22.755Z,-0.92
2023-02-02T03:48:19.375Z,-1.37
2023-02-02T03:49:16.037Z,-1.00
2023-02-02T03:50:12.755Z,-1.21
2023-02-02T03:51:14.130Z,-1.06
2023-02-02T03:52:10.738Z,-0.82
2023-02-02T03:53:07.337Z,-0.91
2023-02-02T03:54:04.946Z,-0.82
2023-02-02T03:55:01.663Z,-0.69
2023-02-02T03:55:58.283Z,-0.89
2023-02-02T03:56:54.914Z,-1.19
2023-02-02T03:57:51.490Z,-1.09
2023-02-02T03:58:48.138Z,-1.22
2023-02-02T03:59:44.740Z,-1.11
2023-02-02T04:00:41.321Z,-1.14
2023-02-02T04:01:37.938Z,-1.18
2023-02-02T04:02:34.587Z,-1.35
2023-02-02T04:03:31.160Z,-1.14
2023-02-02T04:04:27.790Z,-1.22
2023-02-02T04:05:24.630Z,-1.56
2023-02-02T04:06:21.940Z,-1.58
2023-02-02T04:07:18.544Z,-1.22
2023-02-02T04:08:16.316Z,-1.36
2023-02-02T04:09:13.032Z,-1.38
2023-02-02T04:10:10.333Z,-1.37
2023-02-02T04:11:10.534Z,-1.50
2023-02-02T04:12:07.328Z,-1.50
2023-02-02T04:13:03.891Z,-1.51
2023-02-02T04:14:00.725Z,-1.33
2023-02-02T04:14:57.300Z,-1.23
2023-02-02T04:16:00.982Z,-1.29
2023-02-02T04:16:57.673Z,-1.64
2023-02-02T04:17:54.314Z,-1.55
2023-02-02T04:18:51.088Z,-1.69
2023-02-02T04:19:47.694Z,-2.01
2023-02-02T04:20:44.308Z,-1.51
2023-02-02T04:21:41.253Z,-1.72
2023-02-02T04:22:37.844Z,-1.54
2023-02-02T04:23:35.368Z,-1.67
2023-02-02T04:24:31.924Z,-1.60
2023-02-02T04:25:28.504Z,-1.77
2023-02-02T04:26:26.275Z,-1.68
2023-02-02T04:27:23.404Z,-1.57
2023-02-02T04:28:21.095Z,-1.63
2023-02-02T04:29:17.718Z,-1.68
2023-02-02T04:30:14.428Z,-1.77
2023-02-02T04:31:11.138Z,-1.83
2023-02-02T04:32:07.908Z,-1.82
2023-02-02T04:33:04.506Z,-1.77
2023-02-02T04:34:01.407Z,-2.09
2023-02-02T04:34:57.967Z,-1.90
2023-02-02T04:35:55.149Z,-2.11
2023-02-02T04:36:51.748Z,-1.97
2023-02-02T04:37:48.302Z,-1.88
2023-02-02T04:38:48.686Z,-1.78
2023-02-02T04:39:45.323Z,-1.82
2023-02-02T04:40:44.437Z,-1.80
2023-02-02T04:41:41.019Z,-1.74
2023-02-02T04:42:37.560Z,-1.76
2023-02-02T04:43:35.273Z,-1.93
2023-02-02T04:44:31.942Z,-2.06
2023-02-02T04:45:28.684Z,-1.85
2023-02-02T04:46:26.628Z,-1.81
2023-02-02T04:47:23.359Z,-1.54
2023-02-02T04:48:19.908Z,-1.84
2023-02-02T04:49:16.616Z,-1.69
2023-02-02T04:50:13.323Z,-1.73
2023-02-02T04:51:12.888Z,-1.82
2023-02-02T04:52:11.271Z,-1.70
2023-02-02T04:53:07.901Z,-1.84
2023-02-02T04:54:05.384Z,-1.80
2023-02-02T04:55:01.956Z,-1.92
2023-02-02T04:55:58.819Z,-1.60
2023-02-02T04:56:55.437Z,-1.64
2023-02-02T04:57:52.065Z,-1.69
2023-02-02T04:58:48.686Z,-1.75
2023-02-02T04:59:45.254Z,-1.75
2023-02-02T05:00:41.901Z,-1.76
2023-02-02T05:01:38.582Z,-2.17
2023-02-02T05:02:39.983Z,-1.87
2023-02-02T05:03:36.569Z,-1.81
2023-02-02T05:04:33.174Z,-1.93
2023-02-02T05:05:29.855Z,-1.94
2023-02-02T05:06:26.525Z,-1.98
2023-02-02T05:07:23.204Z,-2.01
2023-02-02T05:08:19.832Z,-1.96
2023-02-02T05:09:16.458Z,-1.93
2023-02-02T05:10:13.040Z,-1.84
2023-02-02T05:11:11.602Z,-1.81
2023-02-02T05:12:08.186Z,-1.79
2023-02-02T05:13:04.743Z,-1.88
2023-02-02T05:14:01.293Z,-1.94
2023-02-02T05:15:01.033Z,-1.97
2023-02-02T05:15:57.664Z,-1.90
2023-02-02T05:16:54.532Z,-2.20
2023-02-02T05:17:51.105Z,-2.20
2023-02-02T05:18:52.909Z,-1.52
2023-02-02T05:19:49.509Z,-1.44
2023-02-02T05:20:46.109Z,-1.74
2023-02-02T05:21:51.152Z,-1.41
2023-02-02T05:22:51.025Z,-1.27
2023-02-02T05:23:48.709Z,-1.46
2023-02-02T05:24:45.355Z,-1.61
2023-02-02T05:25:41.919Z,-1.43
2023-02-02T05:26:38.539Z,-1.45
2023-02-02T05:27:35.171Z,-1.49
2023-02-02T05:28:31.792Z,-1.40
2023-02-02T05:29:29.661Z,-1.29
2023-02-02T05:30:26.233Z,-1.58
2023-02-02T05:31:22.899Z,-1.23
2023-02-02T05:32:19.539Z,-1.26
2023-02-02T05:33:18.758Z,-1.54
2023-02-02T05:34:15.373Z,-1.69
2023-02-02T05:35:12.023Z,-1.63
2023-02-02T05:36:08.699Z,-1.51
2023-02-02T05:37:05.293Z,-1.29
2023-02-02T05:38:01.966Z,-1.39
2023-02-02T05:38:58.567Z,-1.38
2023-02-02T05:39:55.145Z,-1.41
2023-02-02T05:40:51.780Z,-1.54
2023-02-02T05:41:48.408Z,-1.32
2023-02-02T05:42:48.308Z,-1.33
2023-02-02T05:43:44.928Z,-1.61
2023-02-02T05:44:41.492Z,-1.07
2023-02-02T05:45:38.064Z,-1.00
2023-02-02T05:46:34.797Z,-1.19
2023-02-02T05:47:31.475Z,-1.01
2023-02-02T05:48:28.111Z,-1.07
2023-02-02T05:49:24.774Z,-1.04
2023-02-02T05:50:21.518Z,-0.84
2023-02-02T05:51:25.759Z,-0.84
2023-02-02T05:52:24.975Z,-0.69
2023-02-02T05:53:21.984Z,-0.98
2023-02-02T05:54:20.742Z,-0.75
2023-02-02T05:55:18.505Z,-0.94
2023-02-02T05:56:15.830Z,-0.89
2023-02-02T05:57:12.895Z,-0.68
2023-02-02T05:58:09.591Z,-0.57
2023-02-02T05:59:07.563Z,-0.49
2023-02-02T06:00:04.825Z,-0.50
2023-02-02T06:01:01.598Z,-0.72
2023-02-02T06:01:58.204Z,-0.59
2023-02-02T06:02:54.945Z,-0.25
2023-02-02T06:03:51.806Z,-0.46
2023-02-02T06:04:48.473Z,-0.40
2023-02-02T06:05:45.108Z,-0.43
2023-02-02T06:06:42.315Z,-0.48
2023-02-02T06:07:38.984Z,-0.68
2023-02-02T06:08:36.535Z,-0.36
2023-02-02T06:09:33.171Z,-0.21
2023-02-02T06:10:31.515Z,-0.09
2023-02-02T06:11:28.133Z,-0.06
2023-02-02T06:12:24.864Z,-0.02
2023-02-02T06:13:22.218Z,-0.30
2023-02-02T06:14:18.827Z,-0.31
2023-02-02T06:15:15.451Z,-0.40
2023-02-02T06:16:12.257Z,-0.36
2023-02-02T06:17:08.885Z,-0.30
2023-02-02T06:18:08.523Z,-0.12
2023-02-02T06:19:05.234Z,-0.25
2023-02-02T06:20:01.814Z,-0.19
2023-02-02T06:20:59.363Z,-0.10
2023-02-02T06:21:55.962Z,-0.14
2023-02-02T06:22:52.592Z,0.00
2023-02-02T06:23:49.282Z,-0.06
2023-02-02T06:24:45.890Z,-0.23
2023-02-02T06:25:42.557Z,0.12
2023-02-02T06:26:39.364Z,0.17
2023-02-02T06:27:36.220Z,0.17
2023-02-02T06:28:32.847Z,0.04
2023-02-02T06:29:29.453Z,0.36
2023-02-02T06:30:27.516Z,0.47
2023-02-02T06:31:24.750Z,0.43
2023-02-02T06:32:21.481Z,0.25
2023-02-02T06:33:18.038Z,0.13
2023-02-02T06:34:14.847Z,0.29
2023-02-02T06:35:11.599Z,0.31
2023-02-02T06:36:08.251Z,0.13
2023-02-02T06:37:04.820Z,0.38
2023-02-02T06:38:01.495Z,0.19
2023-02-02T06:38:58.221Z,0.16
2023-02-02T06:39:54.798Z,0.59
2023-02-02T06:40:51.372Z,0.54
2023-02-02T06:41:48.389Z,0.71
2023-02-02T06:42:44.963Z,0.43
2023-02-02T06:43:41.578Z,0.71
2023-02-02T06:44:38.139Z,0.92
2023-02-02T06:45:40.168Z,0.97
2023-02-02T06:46:36.814Z,0.95
2023-02-02T06:47:33.754Z,0.96
2023-02-02T06:48:30.380Z,0.81
2023-02-02T06:49:26.973Z,0.62
2023-02-02T06:50:23.603Z,0.77
2023-02-02T06:51:20.612Z,0.97
2023-02-02T06:52:17.188Z,1.21
2023-02-02T06:53:13.977Z,0.90
2023-02-02T06:54:10.694Z,1.27
2023-02-02T06:55:07.636Z,1.06
2023-02-02T06:56:07.432Z,0.89
2023-02-02T06:57:04.041Z,0.84
2023-02-02T06:58:01.535Z,1.29
2023-02-02T06:58:58.185Z,1.51
2023-02-02T06:59:54.914Z,1.56
2023-02-02T07:00:51.489Z,1.29
2023-02-02T07:01:50.902Z,0.96
2023-02-02T07:02:47.702Z,0.81
2023-02-02T07:03:51.400Z,0.55
2023-02-02T07:04:48.096Z,0.85
2023-02-02T07:05:44.834Z,0.65
2023-02-02T07:06:41.631Z,-0.10
2023-02-02T07:07:38.265Z,0.66
2023-02-02T07:08:34.892Z,0.63
2023-02-02T07:09:35.032Z,0.84
2023-02-02T07:11:13.600Z,0.77
2023-02-02T07:11:48.224Z,0.61
2023-02-02T07:12:45.456Z,0.57
2023-02-02T07:13:42.024Z,0.94
2023-02-02T07:14:38.571Z,1.46
2023-02-02T07:15:35.489Z,1.47
2023-02-02T07:16:32.468Z,1.33
2023-02-02T07:17:29.328Z,0.65
2023-02-02T07:18:26.248Z,1.20
2023-02-02T07:19:22.912Z,0.96
2023-02-02T07:20:19.500Z,1.17
2023-02-02T07:21:22.140Z,1.23
2023-02-02T07:22:18.973Z,1.62
2023-02-02T07:23:15.567Z,1.69
2023-02-02T07:24:12.250Z,1.58
2023-02-02T07:25:08.992Z,1.63
2023-02-02T07:26:08.291Z,1.56
2023-02-02T07:27:05.259Z,1.37
2023-02-02T07:28:01.932Z,1.46
2023-02-02T07:28:58.580Z,1.30
2023-02-02T07:29:55.129Z,1.37
2023-02-02T07:30:51.776Z,1.37
2023-02-02T07:31:48.506Z,1.26
2023-02-02T07:32:48.984Z,1.54
2023-02-02T07:33:47.119Z,1.69
2023-02-02T07:34:44.294Z,1.59
2023-02-02T07:35:40.864Z,1.63
2023-02-02T07:36:38.406Z,1.48
2023-02-02T07:37:35.058Z,1.48
2023-02-02T07:38:31.827Z,1.52
2023-02-02T07:39:28.427Z,1.61
2023-02-02T07:40:25.085Z,1.80
2023-02-02T07:41:22.277Z,1.76
2023-02-02T07:42:18.929Z,2.18
2023-02-02T07:43:15.641Z,2.29
2023-02-02T07:44:16.591Z,2.27
2023-02-02T07:45:24.687Z,2.23
2023-02-02T07:46:24.655Z,2.06
2023-02-02T07:47:21.359Z,1.97
2023-02-02T07:48:18.131Z,2.23
2023-02-02T07:49:16.520Z,2.27
2023-02-02T07:50:13.108Z,2.31
2023-02-02T07:51:13.393Z,2.30
2023-02-02T07:52:10.078Z,2.40
2023-02-02T07:53:06.682Z,2.67
2023-02-02T07:54:03.561Z,2.06
2023-02-02T07:55:13.852Z,2.52
2023-02-02T07:56:15.395Z,2.61
2023-02-02T07:57:13.280Z,2.65
2023-02-02T07:58:10.929Z,2.62
2023-02-02T07:59:07.578Z,2.73
2023-02-02T08:00:04.606Z,3.09
2023-02-02T08:01:05.904Z,3.23
2023-02-02T08:02:02.847Z,3.59
2023-02-02T08:02:59.558Z,3.12
2023-02-02T08:03:59.089Z,3.44
2023-02-02T08:04:55.622Z,3.56
2023-02-02T08:05:52.369Z,3.27
2023-02-02T08:06:48.932Z,3.29
2023-02-02T08:07:45.704Z,2.78
2023-02-02T08:08:42.367Z,2.90
2023-02-02T08:09:39.083Z,2.94
2023-02-02T08:10:35.769Z,3.34
2023-02-02T08:11:32.364Z,3.10
2023-02-02T08:12:29.045Z,2.75
2023-02-02T08:13:25.676Z,2.69
2023-02-02T08:14:22.329Z,2.79
2023-02-02T08:15:18.922Z,2.76
2023-02-02T08:16:15.758Z,2.44
2023-02-02T08:17:12.440Z,2.46
2023-02-02T08:18:09.137Z,2.32
2023-02-02T08:19:05.898Z,2.59
2023-02-02T08:20:02.530Z,2.33
2023-02-02T08:21:02.869Z,2.54
2023-02-02T08:21:59.546Z,2.29
2023-02-02T08:22:56.709Z,2.46
2023-02-02T08:23:53.857Z,2.38
2023-02-02T08:24:53.441Z,2.44
2023-02-02T08:25:51.057Z,2.15
2023-02-02T08:26:47.757Z,2.62
2023-02-02T08:27:44.422Z,2.57
2023-02-02T08:28:42.563Z,2.72
2023-02-02T08:29:39.450Z,2.72
2023-02-02T08:30:36.115Z,2.88
2023-02-02T08:31:39.414Z,2.94
2023-02-02T08:32:36.036Z,3.13
2023-02-02T08:33:32.941Z,3.36
2023-02-02T08:34:29.603Z,3.65
2023-02-02T08:35:26.500Z,3.82
2023-02-02T08:36:24.181Z,3.79
2023-02-02T08:37:20.757Z,3.95
2023-02-02T08:38:17.398Z,3.29
2023-02-02T08:39:14.458Z,3.43
2023-02-02T08:40:11.885Z,3.40
2023-02-02T08:41:11.080Z,3.73
2023-02-02T08:42:07.743Z,3.79
2023-02-02T08:43:04.787Z,3.97
2023-02-02T08:44:01.474Z,4.02
2023-02-02T08:46:01.858Z,3.95
2023-02-02T08:46:17.417Z,4.05
2023-02-02T08:47:14.192Z,4.14
2023-02-02T08:48:12.415Z,4.52
2023-02-02T08:49:11.617Z,4.59
2023-02-02T08:50:08.994Z,4.27
2023-02-02T08:51:07.504Z,4.32
2023-02-02T08:52:04.348Z,4.21
2023-02-02T08:53:00.884Z,3.70
2023-02-02T08:53:57.480Z,4.65
2023-02-02T08:54:54.139Z,4.59
2023-02-02T08:56:09.402Z,5.00
2023-02-02T08:57:05.963Z,4.89
2023-02-02T08:58:02.592Z,4.96
2023-02-02T08:58:59.721Z,4.90
2023-02-02T08:59:56.415Z,5.10
2023-02-02T09:00:53.168Z,5.13
2023-02-02T09:01:49.800Z,5.12
2023-02-02T09:02:50.679Z,5.31
2023-02-02T09:03:47.407Z,5.46
2023-02-02T09:04:45.641Z,5.16
2023-02-02T09:05:42.408Z,4.82
2023-02-02T09:06:40.563Z,4.89
2023-02-02T09:07:37.158Z,5.36
2023-02-02T09:08:34.258Z,5.81
2023-02-02T09:09:30.930Z,5.56
2023-02-02T09:10:27.886Z,6.13
2023-02-02T09:11:24.745Z,5.89
2023-02-02T09:12:21.862Z,5.73
2023-02-02T09:13:18.471Z,5.53
2023-02-02T09:14:15.299Z,5.08
2023-02-02T09:15:12.802Z,5.43
2023-02-02T09:16:11.781Z,5.62
2023-02-02T09:17:08.463Z,5.17
2023-02-02T09:18:05.204Z,5.21
2023-02-02T09:19:02.411Z,5.08
2023-02-02T09:19:59.020Z,5.22
2023-02-02T09:20:59.331Z,5.08
2023-02-02T09:21:55.938Z,4.75
2023-02-02T09:22:56.075Z,5.06
2023-02-02T09:23:56.868Z,5.09
2023-02-02T09:24:53.419Z,5.00
2023-02-02T09:25:49.994Z,5.27
2023-02-02T09:26:46.652Z,5.49
2023-02-02T09:27:43.277Z,5.71
2023-02-02T09:28:41.996Z,6.06
2023-02-02T09:29:38.649Z,6.00
2023-02-02T09:30:35.279Z,6.13
2023-02-02T09:31:36.384Z,6.19
2023-02-02T09:32:33.278Z,5.43
2023-02-02T09:33:29.982Z,5.16
2023-02-02T09:34:26.574Z,5.31
2023-02-02T09:35:23.793Z,5.14
2023-02-02T09:36:24.979Z,5.46
2023-02-02T09:37:21.576Z,5.94
2023-02-02T09:38:18.185Z,5.72
2023-02-02T09:39:16.685Z,5.94
2023-02-02T09:40:21.003Z,5.81
2023-02-02T09:41:38.794Z,5.75
2023-02-02T09:42:50.361Z,6.00
2023-02-02T09:44:09.905Z,6.43
2023-02-02T09:45:13.658Z,6.33
2023-02-02T09:46:17.539Z,6.12
2023-02-02T09:47:23.365Z,6.58
2023-02-02T09:48:29.960Z,6.24
2023-02-02T09:49:44.471Z,6.39
2023-02-02T09:50:49.579Z,6.14
2023-02-02T09:52:13.612Z,5.75
2023-02-02T09:53:13.242Z,6.04
2023-02-02T09:54:24.504Z,6.36
2023-02-02T09:55:41.415Z,6.52
2023-02-02T09:56:45.082Z,6.12
2023-02-02T09:57:48.620Z,6.10
2023-02-02T09:58:57.720Z,5.77
2023-02-02T09:59:55.929Z,6.41
2023-02-02T10:01:15.615Z,6.20
2023-02-02T10:02:25.348Z,6.91
2023-02-02T10:03:33.938Z,7.01
2023-02-02T10:04:42.257Z,7.05
2023-02-02T10:06:03.778Z,7.13
2023-02-02T10:07:18.515Z,7.25
2023-02-02T10:08:34.326Z,7.55
2023-02-02T10:09:48.312Z,7.04
2023-02-02T10:10:47.166Z,6.77
2023-02-02T10:11:49.281Z,6.74
2023-02-02T10:12:58.076Z,6.82
2023-02-02T10:14:01.498Z,6.58
2023-02-02T10:14:59.025Z,6.15
2023-02-02T10:16:05.980Z,6.39
2023-02-02T10:17:21.909Z,6.31
2023-02-02T10:18:24.169Z,6.00
2023-02-02T10:19:27.970Z,5.89
2023-02-02T10:20:51.052Z,5.92
2023-02-02T10:22:22.825Z,6.08
2023-02-02T10:23:27.738Z,5.99
2023-02-02T10:24:28.386Z,6.07
2023-02-02T10:25:28.081Z,5.87
2023-02-02T10:26:33.579Z,6.08
2023-02-02T10:28:16.829Z,5.57
2023-02-02T10:29:19.214Z,6.46
2023-02-02T10:30:18.422Z,6.45
2023-02-02T10:31:35.486Z,6.32
2023-02-02T10:32:48.629Z,6.11
2023-02-02T10:33:47.037Z,6.60
2023-02-02T10:35:12.540Z,6.43
2023-02-02T10:36:31.893Z,6.20
2023-02-02T10:38:13.365Z,6.18
2023-02-02T10:39:33.386Z,6.05
2023-02-02T10:41:07.855Z,5.86
2023-02-02T10:42:29.203Z,6.25
2023-02-02T10:43:47.358Z,6.18
2023-02-02T10:44:52.463Z,5.98
2023-02-02T10:45:51.455Z,5.97
2023-02-02T10:46:53.443Z,6.15
2023-02-02T10:47:51.313Z,6.28
2023-02-02T10:48:49.123Z,5.94
2023-02-02T10:49:45.913Z,5.85
2023-02-02T10:50:46.405Z,5.91
2023-02-02T10:51:52.134Z,5.75
2023-02-02T10:53:00.249Z,5.98
2023-02-02T10:54:05.278Z,6.49
2023-02-02T10:55:04.205Z,6.33
2023-02-02T10:56:08.829Z,6.67
2023-02-02T10:57:10.633Z,6.93
2023-02-02T10:58:13.022Z,6.63
2023-02-02T10:59:19.580Z,6.11
2023-02-02T11:00:35.021Z,6.38
2023-02-02T11:01:31.730Z,6.14
2023-02-02T11:02:28.444Z,6.07
2023-02-02T11:03:31.085Z,6.47
2023-02-02T11:04:47.918Z,6.53
2023-02-02T11:06:03.043Z,6.83
2023-02-02T11:07:01.539Z,6.89
2023-02-02T11:07:58.777Z,6.47
2023-02-02T11:09:00.599Z,6.40
2023-02-02T11:09:57.258Z,6.02
2023-02-02T11:10:55.993Z,5.74
2023-02-02T11:11:57.586Z,5.69
2023-02-02T11:12:57.095Z,5.69
2023-02-02T11:13:59.188Z,5.87
2023-02-02T11:15:01.838Z,5.72
2023-02-02T11:16:16.680Z,6.44
2023-02-02T11:17:22.778Z,6.32
2023-02-02T11:18:30.949Z,6.34
2023-02-02T11:19:32.540Z,6.32
2023-02-02T11:20:39.119Z,6.73
2023-02-02T11:21:38.207Z,6.92
2023-02-02T11:22:38.796Z,6.58
2023-02-02T11:23:35.367Z,6.71
2023-02-02T11:24:45.147Z,7.25
2023-02-02T11:25:42.991Z,7.21
2023-02-02T11:26:55.748Z,7.54
2023-02-02T11:27:53.142Z,7.15
2023-02-02T11:28:50.748Z,6.83
2023-02-02T11:29:59.508Z,7.17
2023-02-02T11:30:57.117Z,6.98
2023-02-02T11:31:54.027Z,6.28
2023-02-02T11:32:50.936Z,6.66
2023-02-02T11:33:50.514Z,6.65
2023-02-02T11:34:47.470Z,6.05
2023-02-02T11:36:02.527Z,6.54
2023-02-02T11:37:21.910Z,6.20
2023-02-02T11:38:18.531Z,6.23
2023-02-02T11:39:21.673Z,6.45
2023-02-02T11:40:31.560Z,6.69
2023-02-02T11:41:31.524Z,6.28
2023-02-02T11:42:29.128Z,6.49
2023-02-02T11:43:41.337Z,6.53
2023-02-02T11:44:40.058Z,6.29
2023-02-02T11:45:39.975Z,6.33
2023-02-02T11:46:38.596Z,6.62
2023-02-02T11:47:35.715Z,6.51
2023-02-02T11:48:50.119Z,6.64
2023-02-02T11:49:47.108Z,6.57
2023-02-02T11:50:50.103Z,6.79
2023-02-02T11:51:59.995Z,6.81
2023-02-02T11:52:57.561Z,6.46
2023-02-02T11:54:15.638Z,6.35
2023-02-02T11:55:20.151Z,6.25
2023-02-02T11:56:25.926Z,6.13
2023-02-02T11:57:25.514Z,6.35
2023-02-02T11:58:25.143Z,6.30
2023-02-02T11:59:27.523Z,6.14
2023-02-02T12:00:27.374Z,6.36
2023-02-02T12:01:27.297Z,6.61
2023-02-02T12:02:28.413Z,6.64
2023-02-02T12:03:32.845Z,6.34
2023-02-02T12:04:32.228Z,6.40
2023-02-02T12:05:36.464Z,6.46
2023-02-02T12:06:33.053Z,6.41
2023-02-02T12:07:33.656Z,6.53
2023-02-02T12:08:30.557Z,6.47
2023-02-02T12:09:27.819Z,6.48
2023-02-02T12:10:41.988Z,6.35
2023-02-02T12:12:03.593Z,6.49
2023-02-02T12:13:07.659Z,6.31
2023-02-02T12:14:29.029Z,6.47
2023-02-02T12:15:50.439Z,6.55
2023-02-02T12:16:55.706Z,6.54
2023-02-02T12:18:02.577Z,6.51
2023-02-02T12:19:15.997Z,6.52
2023-02-02T12:20:36.586Z,6.71
2023-02-02T12:22:07.147Z,6.53
2023-02-02T12:23:03.847Z,6.58
2023-02-02T12:24:29.165Z,6.58
2023-02-02T12:25:42.539Z,6.90
2023-02-02T12:26:41.291Z,6.78
2023-02-02T12:27:37.955Z,6.99
2023-02-02T12:28:52.572Z,6.70
2023-02-02T12:29:57.876Z,6.75
2023-02-02T12:31:15.426Z,6.97
2023-02-02T12:32:36.534Z,7.35
2023-02-02T12:33:57.649Z,7.21
2023-02-02T12:35:21.823Z,6.88
2023-02-02T12:36:21.485Z,6.99
2023-02-02T12:37:33.475Z,7.06
2023-02-02T12:38:42.059Z,6.79
2023-02-02T12:39:47.561Z,7.07
2023-02-02T12:41:25.446Z,7.15
2023-02-02T12:42:34.069Z,7.15
2023-02-02T12:43:30.907Z,7.17
2023-02-02T12:44:40.891Z,7.36
2023-02-02T12:46:01.464Z,6.91
2023-02-02T12:47:14.463Z,6.89
2023-02-02T12:48:39.887Z,6.93
2023-02-02T12:49:51.549Z,6.79
2023-02-02T12:51:15.836Z,6.58
2023-02-02T12:52:23.830Z,6.72
2023-02-02T12:53:25.411Z,7.21
2023-02-02T12:54:47.248Z,7.34
2023-02-02T12:56:18.713Z,6.84
2023-02-02T12:57:57.642Z,6.32
2023-02-02T12:59:18.735Z,6.34
2023-02-02T13:00:17.985Z,6.47
2023-02-02T13:01:33.045Z,6.62
2023-02-02T13:03:04.565Z,6.90
2023-02-02T13:04:07.832Z,7.00
2023-02-02T13:05:16.735Z,7.07
2023-02-02T13:06:47.325Z,7.07
2023-02-02T13:07:55.870Z,7.18
2023-02-02T13:09:19.719Z,7.18
2023-02-02T13:10:19.729Z,7.14
2023-02-02T13:11:30.196Z,7.31
2023-02-02T13:12:29.867Z,7.14
2023-02-02T13:13:31.867Z,6.65
2023-02-02T13:14:44.826Z,6.70
2023-02-02T13:15:48.033Z,6.78
2023-02-02T13:16:49.342Z,6.66
2023-02-02T13:17:56.478Z,6.74
2023-02-02T13:19:06.873Z,6.78
2023-02-02T13:20:11.618Z,6.78
2023-02-02T13:21:16.834Z,7.08
2023-02-02T13:22:27.024Z,6.97
2023-02-02T13:23:37.123Z,6.79
2023-02-02T13:24:38.826Z,6.97